Ola, Arkansas
Current Conditions -  °F | °C
As of 4:53 PM on Saturday 25 Oct 2014 (Local Time) from KRUE Reporting Station
Clear Clear  
Wind Chill: 84°   Ceiling: Unl
Heat Index: 85°   Visibility: 10mi
Dew Point: 64°   Wind: 5mph
Humidity: 51%   Direction: 290°WNW
Pressure: 30.02"   Gusts: NA
Location:  35.03°N, 93.22°W
Report Text: KRUE 252153Z AUTO 29004KT 10SM CLR 29/18 A3002 RMK AO2 SLP160 T02890178
Loading
Personal Weather Stations






























Interactive Weather Map
Tropical Storm Tracking
New forecast layout! Learn more

10-Day Weather Forecast

Advertisements
Track Severe Weather on mobile